sensor_id;sensor_type;location;lat;lon;timestamp;pressure;altitude;pressure_sealevel;temperature;humidity
61478;BME280;47345;52.334;10.392;2023-12-14T00:01:30;99934.30;;;4.43;99.52
61478;BME280;47345;52.334;10.392;2023-12-14T00:03:58;99933.83;;;4.39;99.35
61478;BME280;47345;52.334;10.392;2023-12-14T00:06:25;99933.42;;;4.38;99.53
61478;BME280;47345;52.334;10.392;2023-12-14T00:08:53;99936.99;;;4.34;99.39
61478;BME280;47345;52.334;10.392;2023-12-14T00:11:21;99940.85;;;4.30;99.64
61478;BME280;47345;52.334;10.392;2023-12-14T00:13:49;99943.00;;;4.26;99.65
61478;BME280;47345;52.334;10.392;2023-12-14T00:16:16;99950.24;;;4.23;99.65
61478;BME280;47345;52.334;10.392;2023-12-14T00:18:44;99949.83;;;4.17;99.66
61478;BME280;47345;52.334;10.392;2023-12-14T00:21:11;99949.57;;;4.13;99.78
61478;BME280;47345;52.334;10.392;2023-12-14T00:23:39;99956.90;;;4.14;99.95
61478;BME280;47345;52.334;10.392;2023-12-14T00:26:06;99960.45;;;4.14;99.98
61478;BME280;47345;52.334;10.392;2023-12-14T00:28:34;99963.37;;;4.14;99.87
61478;BME280;47345;52.334;10.392;2023-12-14T00:31:02;99967.56;;;4.11;99.70
61478;BME280;47345;52.334;10.392;2023-12-14T00:33:30;99971.34;;;4.12;99.56
61478;BME280;47345;52.334;10.392;2023-12-14T00:35:57;99971.56;;;4.13;99.54
61478;BME280;47345;52.334;10.392;2023-12-14T00:38:25;99973.52;;;4.14;99.52
61478;BME280;47345;52.334;10.392;2023-12-14T00:40:53;99981.89;;;4.16;99.05
61478;BME280;47345;52.334;10.392;2023-12-14T00:43:21;99987.54;;;4.13;98.76
61478;BME280;47345;52.334;10.392;2023-12-14T00:45:48;99991.33;;;4.10;98.98
61478;BME280;47345;52.334;10.392;2023-12-14T00:48:16;99998.09;;;4.06;98.70
61478;BME280;47345;52.334;10.392;2023-12-14T00:50:44;100002.33;;;4.01;98.79
61478;BME280;47345;52.334;10.392;2023-12-14T00:53:11;100003.66;;;3.98;99.09
61478;BME280;47345;52.334;10.392;2023-12-14T00:55:39;100005.73;;;3.97;99.41
61478;BME280;47345;52.334;10.392;2023-12-14T00:58:07;100011.54;;;3.99;99.68
61478;BME280;47345;52.334;10.392;2023-12-14T01:00:34;100010.59;;;3.99;99.47
61478;BME280;47345;52.334;10.392;2023-12-14T01:03:02;100018.31;;;3.98;99.13
61478;BME280;47345;52.334;10.392;2023-12-14T01:05:29;100025.63;;;3.97;99.11
61478;BME280;47345;52.334;10.392;2023-12-14T01:07:57;100030.75;;;3.96;99.39
61478;BME280;47345;52.334;10.392;2023-12-14T01:10:25;100036.30;;;3.95;99.40
61478;BME280;47345;52.334;10.392;2023-12-14T01:12:52;100037.96;;;3.94;99.40
61478;BME280;47345;52.334;10.392;2023-12-14T01:15:20;100034.77;;;3.93;99.46
61478;BME280;47345;52.334;10.392;2023-12-14T01:17:47;100043.35;;;3.98;99.64
61478;BME280;47345;52.334;10.392;2023-12-14T01:20:15;100045.64;;;4.01;99.50
61478;BME280;47345;52.334;10.392;2023-12-14T01:22:43;100050.52;;;4.02;99.14
61478;BME280;47345;52.334;10.392;2023-12-14T01:25:11;100059.27;;;4.00;98.77
61478;BME280;47345;52.334;10.392;2023-12-14T01:27:38;100071.19;;;3.98;98.69
61478;BME280;47345;52.334;10.392;2023-12-14T01:30:08;100080.64;;;3.96;98.77
61478;BME280;47345;52.334;10.392;2023-12-14T01:32:36;100082.77;;;3.93;98.63
61478;BME280;47345;52.334;10.392;2023-12-14T01:35:04;100087.54;;;3.92;98.65
61478;BME280;47345;52.334;10.392;2023-12-14T01:37:31;100090.39;;;3.91;98.57
61478;BME280;47345;52.334;10.392;2023-12-14T01:39:59;100097.19;;;3.90;98.45
61478;BME280;47345;52.334;10.392;2023-12-14T01:42:27;100101.17;;;3.87;98.52
61478;BME280;47345;52.334;10.392;2023-12-14T01:44:55;100104.06;;;3.83;98.59
61478;BME280;47345;52.334;10.392;2023-12-14T01:47:22;100105.79;;;3.82;98.83
61478;BME280;47345;52.334;10.392;2023-12-14T01:49:50;100106.95;;;3.80;98.92
61478;BME280;47345;52.334;10.392;2023-12-14T01:52:17;100110.20;;;3.76;98.88
61478;BME280;47345;52.334;10.392;2023-12-14T01:54:45;100113.61;;;3.71;99.16
61478;BME280;47345;52.334;10.392;2023-12-14T01:57:13;100118.38;;;3.67;99.22
61478;BME280;47345;52.334;10.392;2023-12-14T01:59:40;100124.14;;;3.64;99.56
61478;BME280;47345;52.334;10.392;2023-12-14T02:02:08;100125.30;;;3.60;99.24
61478;BME280;47345;52.334;10.392;2023-12-14T02:04:36;100127.98;;;3.58;99.45
61478;BME280;47345;52.334;10.392;2023-12-14T02:07:05;100131.96;;;3.54;99.31
61478;BME280;47345;52.334;10.392;2023-12-14T02:09:32;100127.61;;;3.49;99.81
61478;BME280;47345;52.334;10.392;2023-12-14T02:12:00;100134.59;;;3.48;100.00
61478;BME280;47345;52.334;10.392;2023-12-14T02:14:27;100140.11;;;3.46;100.00
61478;BME280;47345;52.334;10.392;2023-12-14T02:16:55;100140.31;;;3.44;100.00
61478;BME280;47345;52.334;10.392;2023-12-14T02:19:23;100145.45;;;3.43;100.00
61478;BME280;47345;52.334;10.392;2023-12-14T02:21:50;100150.84;;;3.42;100.00
61478;BME280;47345;52.334;10.392;2023-12-14T02:24:18;100160.51;;;3.41;100.00
61478;BME280;47345;52.334;10.392;2023-12-14T02:26:46;100162.40;;;3.40;100.00
61478;BME280;47345;52.334;10.392;2023-12-14T02:29:30;100166.16;;;3.37;100.00
61478;BME280;47345;52.334;10.392;2023-12-14T02:31:58;100167.04;;;3.37;100.00
61478;BME280;47345;52.334;10.392;2023-12-14T02:34:26;100167.58;;;3.37;100.00
61478;BME280;47345;52.334;10.392;2023-12-14T02:36:54;100171.26;;;3.38;100.00
61478;BME280;47345;52.334;10.392;2023-12-14T02:39:21;100174.41;;;3.39;100.00
61478;BME280;47345;52.334;10.392;2023-12-14T02:41:49;100173.64;;;3.36;100.00
61478;BME280;47345;52.334;10.392;2023-12-14T02:44:16;100173.60;;;3.36;100.00
61478;BME280;47345;52.334;10.392;2023-12-14T02:46:44;100172.85;;;3.37;100.00
61478;BME280;47345;52.334;10.392;2023-12-14T02:49:12;100179.23;;;3.36;100.00
61478;BME280;47345;52.334;10.392;2023-12-14T02:51:39;100184.42;;;3.33;100.00
61478;BME280;47345;52.334;10.392;2023-12-14T02:54:07;100187.05;;;3.32;100.00
61478;BME280;47345;52.334;10.392;2023-12-14T02:56:35;100189.13;;;3.32;100.00
61478;BME280;47345;52.334;10.392;2023-12-14T02:59:03;100193.48;;;3.31;100.00
61478;BME280;47345;52.334;10.392;2023-12-14T03:01:30;100195.08;;;3.32;100.00
61478;BME280;47345;52.334;10.392;2023-12-14T03:03:58;100199.64;;;3.31;100.00
61478;BME280;47345;52.334;10.392;2023-12-14T03:06:26;100202.71;;;3.33;100.00
61478;BME280;47345;52.334;10.392;2023-12-14T03:08:53;100197.10;;;3.31;100.00
61478;BME280;47345;52.334;10.392;2023-12-14T03:11:25;100202.43;;;3.33;100.00
61478;BME280;47345;52.334;10.392;2023-12-14T03:13:53;100206.90;;;3.32;100.00
61478;BME280;47345;52.334;10.392;2023-12-14T03:16:20;100209.53;;;3.33;100.00
61478;BME280;47345;52.334;10.392;2023-12-14T03:18:48;100208.08;;;3.34;100.00
61478;BME280;47345;52.334;10.392;2023-12-14T03:21:20;100210.36;;;3.36;100.00
61478;BME280;47345;52.334;10.392;2023-12-14T03:23:48;100214.35;;;3.40;100.00
61478;BME280;47345;52.334;10.392;2023-12-14T03:26:15;100214.80;;;3.44;100.00
61478;BME280;47345;52.334;10.392;2023-12-14T03:28:43;100218.52;;;3.48;100.00
61478;BME280;47345;52.334;10.392;2023-12-14T03:31:12;100220.85;;;3.51;100.00
61478;BME280;47345;52.334;10.392;2023-12-14T03:33:40;100228.27;;;3.54;100.00
61478;BME280;47345;52.334;10.392;2023-12-14T03:36:08;100230.85;;;3.53;99.98
61478;BME280;47345;52.334;10.392;2023-12-14T03:38:35;100231.45;;;3.51;99.99
61478;BME280;47345;52.334;10.392;2023-12-14T03:41:03;100233.38;;;3.48;99.89
61478;BME280;47345;52.334;10.392;2023-12-14T03:43:31;100237.30;;;3.44;99.92
61478;BME280;47345;52.334;10.392;2023-12-14T03:45:59;100239.30;;;3.41;99.87
61478;BME280;47345;52.334;10.392;2023-12-14T03:48:26;100241.36;;;3.38;99.96
61478;BME280;47345;52.334;10.392;2023-12-14T03:50:54;100240.85;;;3.38;99.98
61478;BME280;47345;52.334;10.392;2023-12-14T03:53:21;100249.79;;;3.37;99.88
61478;BME280;47345;52.334;10.392;2023-12-14T03:55:49;100244.91;;;3.34;99.84
61478;BME280;47345;52.334;10.392;2023-12-14T03:58:17;100247.13;;;3.32;99.95
61478;BME280;47345;52.334;10.392;2023-12-14T04:00:44;100255.77;;;3.30;100.00
61478;BME280;47345;52.334;10.392;2023-12-14T04:03:12;100260.57;;;3.31;100.00
61478;BME280;47345;52.334;10.392;2023-12-14T04:05:40;100267.73;;;3.33;100.00
61478;BME280;47345;52.334;10.392;2023-12-14T04:08:08;100272.05;;;3.33;100.00
61478;BME280;47345;52.334;10.392;2023-12-14T04:10:35;100279.98;;;3.33;100.00
61478;BME280;47345;52.334;10.392;2023-12-14T04:13:03;100283.92;;;3.33;100.00
61478;BME280;47345;52.334;10.392;2023-12-14T04:15:31;100288.00;;;3.30;99.93
61478;BME280;47345;52.334;10.392;2023-12-14T04:17:58;100290.80;;;3.31;100.00
61478;BME280;47345;52.334;10.392;2023-12-14T04:20:26;100287.60;;;3.34;100.00
61478;BME280;47345;52.334;10.392;2023-12-14T04:22:54;100290.44;;;3.38;100.00
61478;BME280;47345;52.334;10.392;2023-12-14T04:25:22;100292.36;;;3.42;100.00
61478;BME280;47345;52.334;10.392;2023-12-14T04:27:50;100296.84;;;3.45;100.00
61478;BME280;47345;52.334;10.392;2023-12-14T04:30:17;100301.14;;;3.45;99.65
61478;BME280;47345;52.334;10.392;2023-12-14T04:32:45;100305.97;;;3.46;99.72
61478;BME280;47345;52.334;10.392;2023-12-14T04:35:15;100312.16;;;3.45;99.31
61478;BME280;47345;52.334;10.392;2023-12-14T04:37:41;100319.36;;;3.44;99.05
61478;BME280;47345;52.334;10.392;2023-12-14T04:40:11;100323.76;;;3.42;98.98
61478;BME280;47345;52.334;10.392;2023-12-14T04:42:39;100333.77;;;3.41;99.09
61478;BME280;47345;52.334;10.392;2023-12-14T04:45:08;100338.39;;;3.41;99.18
61478;BME280;47345;52.334;10.392;2023-12-14T04:47:36;100343.84;;;3.41;98.99
61478;BME280;47345;52.334;10.392;2023-12-14T04:50:05;100342.21;;;3.41;99.06
61478;BME280;47345;52.334;10.392;2023-12-14T04:52:33;100348.16;;;3.43;99.25
61478;BME280;47345;52.334;10.392;2023-12-14T04:55:00;100354.80;;;3.46;99.28
61478;BME280;47345;52.334;10.392;2023-12-14T04:57:28;100354.69;;;3.44;98.87
61478;BME280;47345;52.334;10.392;2023-12-14T04:59:56;100360.10;;;3.40;98.85
61478;BME280;47345;52.334;10.392;2023-12-14T05:02:23;100371.96;;;3.39;98.84
61478;BME280;47345;52.334;10.392;2023-12-14T05:04:51;100378.59;;;3.39;99.44
61478;BME280;47345;52.334;10.392;2023-12-14T05:07:19;100375.44;;;3.40;99.16
61478;BME280;47345;52.334;10.392;2023-12-14T05:09:47;100380.77;;;3.41;99.20
61478;BME280;47345;52.334;10.392;2023-12-14T05:12:14;100382.14;;;3.42;99.22
61478;BME280;47345;52.334;10.392;2023-12-14T05:14:42;100388.19;;;3.43;99.22
61478;BME280;47345;52.334;10.392;2023-12-14T05:17:10;100394.29;;;3.43;99.23
61478;BME280;47345;52.334;10.392;2023-12-14T05:19:38;100396.64;;;3.41;98.66
61478;BME280;47345;52.334;10.392;2023-12-14T05:22:06;100395.29;;;3.38;98.49
61478;BME280;47345;52.334;10.392;2023-12-14T05:24:33;100391.88;;;3.38;98.81
61478;BME280;47345;52.334;10.392;2023-12-14T05:27:01;100401.87;;;3.39;98.82
61478;BME280;47345;52.334;10.392;2023-12-14T05:29:29;100399.73;;;3.39;98.56
61478;BME280;47345;52.334;10.392;2023-12-14T05:31:56;100402.30;;;3.38;98.47
61478;BME280;47345;52.334;10.392;2023-12-14T05:34:24;100410.15;;;3.39;98.62
61478;BME280;47345;52.334;10.392;2023-12-14T05:36:52;100411.51;;;3.38;98.45
61478;BME280;47345;52.334;10.392;2023-12-14T05:39:19;100418.80;;;3.39;98.71
61478;BME280;47345;52.334;10.392;2023-12-14T05:41:47;100419.85;;;3.39;98.66
61478;BME280;47345;52.334;10.392;2023-12-14T05:44:14;100420.86;;;3.38;98.82
61478;BME280;47345;52.334;10.392;2023-12-14T05:46:42;100419.78;;;3.37;98.79
61478;BME280;47345;52.334;10.392;2023-12-14T05:49:10;100427.35;;;3.35;98.72
61478;BME280;47345;52.334;10.392;2023-12-14T05:51:38;100429.72;;;3.33;98.76
61478;BME280;47345;52.334;10.392;2023-12-14T05:54:05;100434.23;;;3.32;98.72
61478;BME280;47345;52.334;10.392;2023-12-14T05:56:33;100439.10;;;3.30;98.75
61478;BME280;47345;52.334;10.392;2023-12-14T05:59:04;100448.02;;;3.30;98.86
61478;BME280;47345;52.334;10.392;2023-12-14T06:01:32;100458.95;;;3.30;98.80
61478;BME280;47345;52.334;10.392;2023-12-14T06:04:00;100466.08;;;3.29;98.85
61478;BME280;47345;52.334;10.392;2023-12-14T06:06:27;100469.55;;;3.27;99.11
61478;BME280;47345;52.334;10.392;2023-12-14T06:08:55;100476.27;;;3.25;99.12
61478;BME280;47345;52.334;10.392;2023-12-14T06:11:23;100477.58;;;3.21;98.66
61478;BME280;47345;52.334;10.392;2023-12-14T06:13:51;100474.88;;;3.17;99.11
61478;BME280;47345;52.334;10.392;2023-12-14T06:16:18;100477.73;;;3.16;99.22
61478;BME280;47345;52.334;10.392;2023-12-14T06:18:46;100476.63;;;3.15;99.07
61478;BME280;47345;52.334;10.392;2023-12-14T06:21:14;100478.77;;;3.17;99.71
61478;BME280;47345;52.334;10.392;2023-12-14T06:23:41;100475.17;;;3.18;99.56
61478;BME280;47345;52.334;10.392;2023-12-14T06:26:09;100477.48;;;3.18;99.14
61478;BME280;47345;52.334;10.392;2023-12-14T06:28:37;100483.42;;;3.18;99.02
61478;BME280;47345;52.334;10.392;2023-12-14T06:31:05;100484.74;;;3.16;98.82
61478;BME280;47345;52.334;10.392;2023-12-14T06:33:33;100487.38;;;3.17;99.17
61478;BME280;47345;52.334;10.392;2023-12-14T06:36:04;100492.31;;;3.16;98.97
61478;BME280;47345;52.334;10.392;2023-12-14T06:38:32;100491.98;;;3.16;98.83
61478;BME280;47345;52.334;10.392;2023-12-14T06:41:01;100493.23;;;3.15;98.88
61478;BME280;47345;52.334;10.392;2023-12-14T06:43:29;100500.38;;;3.15;99.18
61478;BME280;47345;52.334;10.392;2023-12-14T06:45:56;100508.05;;;3.17;99.40
61478;BME280;47345;52.334;10.392;2023-12-14T06:48:24;100509.02;;;3.20;99.51
61478;BME280;47345;52.334;10.392;2023-12-14T06:50:52;100515.44;;;3.22;99.51
61478;BME280;47345;52.334;10.392;2023-12-14T06:53:22;100518.94;;;3.23;99.36
61478;BME280;47345;52.334;10.392;2023-12-14T06:55:49;100518.90;;;3.27;99.53
61478;BME280;47345;52.334;10.392;2023-12-14T06:58:18;100526.70;;;3.32;99.54
61478;BME280;47345;52.334;10.392;2023-12-14T07:00:45;100535.20;;;3.36;99.62
61478;BME280;47345;52.334;10.392;2023-12-14T07:03:13;100534.60;;;3.37;98.86
61478;BME280;47345;52.334;10.392;2023-12-14T07:05:43;100539.73;;;3.36;98.62
61478;BME280;47345;52.334;10.392;2023-12-14T07:08:11;100542.27;;;3.34;98.71
61478;BME280;47345;52.334;10.392;2023-12-14T07:10:41;100545.55;;;3.34;98.31
61478;BME280;47345;52.334;10.392;2023-12-14T07:13:09;100551.92;;;3.33;98.27
61478;BME280;47345;52.334;10.392;2023-12-14T07:15:37;100552.13;;;3.32;98.16
61478;BME280;47345;52.334;10.392;2023-12-14T07:18:04;100553.61;;;3.31;98.39
61478;BME280;47345;52.334;10.392;2023-12-14T07:20:32;100556.65;;;3.30;98.29
61478;BME280;47345;52.334;10.392;2023-12-14T07:23:00;100557.02;;;3.30;98.33
61478;BME280;47345;52.334;10.392;2023-12-14T07:25:28;100557.47;;;3.31;98.52
61478;BME280;47345;52.334;10.392;2023-12-14T07:27:55;100564.25;;;3.30;98.60
61478;BME280;47345;52.334;10.392;2023-12-14T07:30:23;100571.23;;;3.28;98.28
61478;BME280;47345;52.334;10.392;2023-12-14T07:32:51;100575.06;;;3.28;98.61
61478;BME280;47345;52.334;10.392;2023-12-14T07:35:19;100573.20;;;3.28;98.47
61478;BME280;47345;52.334;10.392;2023-12-14T07:37:47;100583.14;;;3.28;98.70
61478;BME280;47345;52.334;10.392;2023-12-14T07:40:15;100586.05;;;3.30;98.90
61478;BME280;47345;52.334;10.392;2023-12-14T07:42:43;100594.07;;;3.32;99.10
61478;BME280;47345;52.334;10.392;2023-12-14T07:45:11;100594.32;;;3.36;99.32
61478;BME280;47345;52.334;10.392;2023-12-14T07:47:39;100602.61;;;3.38;99.02
61478;BME280;47345;52.334;10.392;2023-12-14T07:50:08;100610.16;;;3.42;99.06
61478;BME280;47345;52.334;10.392;2023-12-14T07:52:36;100614.25;;;3.43;99.01
61478;BME280;47345;52.334;10.392;2023-12-14T07:55:04;100616.42;;;3.43;98.66
61478;BME280;47345;52.334;10.392;2023-12-14T07:57:32;100617.54;;;3.42;98.84
61478;BME280;47345;52.334;10.392;2023-12-14T08:00:00;100615.44;;;3.43;98.91
61478;BME280;47345;52.334;10.392;2023-12-14T08:02:28;100622.11;;;3.45;98.81
61478;BME280;47345;52.334;10.392;2023-12-14T08:04:55;100629.45;;;3.47;98.97
61478;BME280;47345;52.334;10.392;2023-12-14T08:07:23;100630.03;;;3.48;98.82
61478;BME280;47345;52.334;10.392;2023-12-14T08:09:56;100638.15;;;3.50;98.70
61478;BME280;47345;52.334;10.392;2023-12-14T08:12:23;100641.20;;;3.50;98.36
61478;BME280;47345;52.334;10.392;2023-12-14T08:14:51;100644.00;;;3.49;98.34
61478;BME280;47345;52.334;10.392;2023-12-14T08:17:19;100652.41;;;3.50;98.50
61478;BME280;47345;52.334;10.392;2023-12-14T08:19:47;100655.84;;;3.53;98.79
61478;BME280;47345;52.334;10.392;2023-12-14T08:22:15;100663.93;;;3.57;98.83
61478;BME280;47345;52.334;10.392;2023-12-14T08:24:42;100664.99;;;3.59;98.83
61478;BME280;47345;52.334;10.392;2023-12-14T08:27:10;100669.27;;;3.60;98.70
61478;BME280;47345;52.334;10.392;2023-12-14T08:29:37;100673.39;;;3.60;98.72
61478;BME280;47345;52.334;10.392;2023-12-14T08:32:07;100674.75;;;3.61;98.68
61478;BME280;47345;52.334;10.392;2023-12-14T08:34:34;100677.25;;;3.61;98.57
61478;BME280;47345;52.334;10.392;2023-12-14T08:37:02;100680.84;;;3.61;98.37
61478;BME280;47345;52.334;10.392;2023-12-14T08:39:30;100686.83;;;3.62;98.47
61478;BME280;47345;52.334;10.392;2023-12-14T08:41:57;100692.48;;;3.65;98.66
61478;BME280;47345;52.334;10.392;2023-12-14T08:44:25;100695.64;;;3.68;98.76
61478;BME280;47345;52.334;10.392;2023-12-14T08:46:53;100703.26;;;3.69;98.60
61478;BME280;47345;52.334;10.392;2023-12-14T08:49:20;100711.48;;;3.70;98.38
61478;BME280;47345;52.334;10.392;2023-12-14T08:51:50;100716.40;;;3.71;98.29
61478;BME280;47345;52.334;10.392;2023-12-14T08:54:18;100723.95;;;3.73;98.40
61478;BME280;47345;52.334;10.392;2023-12-14T08:56:45;100727.80;;;3.74;98.18
61478;BME280;47345;52.334;10.392;2023-12-14T08:59:13;100728.23;;;3.73;98.05
61478;BME280;47345;52.334;10.392;2023-12-14T09:01:40;100736.64;;;3.74;97.88
61478;BME280;47345;52.334;10.392;2023-12-14T09:04:08;100743.11;;;3.76;98.26
61478;BME280;47345;52.334;10.392;2023-12-14T09:06:36;100737.71;;;3.76;98.21
61478;BME280;47345;52.334;10.392;2023-12-14T09:09:04;100743.82;;;3.81;98.08
61478;BME280;47345;52.334;10.392;2023-12-14T09:11:31;100753.41;;;3.82;97.75
61478;BME280;47345;52.334;10.392;2023-12-14T09:13:59;100760.17;;;3.83;97.90
61478;BME280;47345;52.334;10.392;2023-12-14T09:16:27;100762.27;;;3.84;97.74
61478;BME280;47345;52.334;10.392;2023-12-14T09:18:54;100765.70;;;3.82;97.25
61478;BME280;47345;52.334;10.392;2023-12-14T09:21:22;100773.51;;;3.82;97.15
61478;BME280;47345;52.334;10.392;2023-12-14T09:24:00;100774.92;;;3.82;97.37
61478;BME280;47345;52.334;10.392;2023-12-14T09:26:28;100781.39;;;3.82;97.30
61478;BME280;47345;52.334;10.392;2023-12-14T09:28:56;100780.34;;;3.80;97.15
61478;BME280;47345;52.334;10.392;2023-12-14T09:31:24;100785.08;;;3.80;97.00
61478;BME280;47345;52.334;10.392;2023-12-14T09:33:52;100791.52;;;3.80;97.09
61478;BME280;47345;52.334;10.392;2023-12-14T09:36:19;100793.46;;;3.81;97.03
61478;BME280;47345;52.334;10.392;2023-12-14T09:38:47;100800.29;;;3.81;96.65
61478;BME280;47345;52.334;10.392;2023-12-14T09:41:15;100807.26;;;3.80;96.97
61478;BME280;47345;52.334;10.392;2023-12-14T09:43:42;100810.64;;;3.79;96.58
61478;BME280;47345;52.334;10.392;2023-12-14T09:46:11;100815.63;;;3.78;96.78
61478;BME280;47345;52.334;10.392;2023-12-14T09:48:40;100820.77;;;3.78;96.87
61478;BME280;47345;52.334;10.392;2023-12-14T09:51:07;100821.59;;;3.78;96.74
61478;BME280;47345;52.334;10.392;2023-12-14T09:53:35;100822.70;;;3.77;96.88
61478;BME280;47345;52.334;10.392;2023-12-14T09:56:04;100823.80;;;3.79;96.92
61478;BME280;47345;52.334;10.392;2023-12-14T09:58:33;100825.23;;;3.82;96.96
61478;BME280;47345;52.334;10.392;2023-12-14T10:01:00;100829.80;;;3.83;96.65
61478;BME280;47345;52.334;10.392;2023-12-14T10:03:29;100831.29;;;3.83;96.70
61478;BME280;47345;52.334;10.392;2023-12-14T10:05:59;100832.04;;;3.83;96.72
61478;BME280;47345;52.334;10.392;2023-12-14T10:08:28;100829.70;;;3.83;96.53
61478;BME280;47345;52.334;10.392;2023-12-14T10:10:56;100831.56;;;3.82;96.48
61478;BME280;47345;52.334;10.392;2023-12-14T10:13:37;100834.84;;;3.82;96.63
61478;BME280;47345;52.334;10.392;2023-12-14T10:16:06;100837.61;;;3.81;96.42
61478;BME280;47345;52.334;10.392;2023-12-14T10:18:34;100838.66;;;3.82;96.44
61478;BME280;47345;52.334;10.392;2023-12-14T10:21:02;100845.48;;;3.82;96.43
61478;BME280;47345;52.334;10.392;2023-12-14T10:23:30;100845.42;;;3.82;96.50
61478;BME280;47345;52.334;10.392;2023-12-14T10:25:58;100848.10;;;3.88;96.68
61478;BME280;47345;52.334;10.392;2023-12-14T10:28:26;100852.33;;;3.94;96.91
61478;BME280;47345;52.334;10.392;2023-12-14T10:30:54;100853.48;;;4.01;96.62
61478;BME280;47345;52.334;10.392;2023-12-14T10:33:22;100855.92;;;4.05;96.40
61478;BME280;47345;52.334;10.392;2023-12-14T10:35:50;100862.05;;;4.08;96.37
61478;BME280;47345;52.334;10.392;2023-12-14T10:38:18;100864.87;;;4.11;95.99
61478;BME280;47345;52.334;10.392;2023-12-14T10:40:47;100864.17;;;4.12;96.00
61478;BME280;47345;52.334;10.392;2023-12-14T10:43:14;100864.09;;;4.15;96.06
61478;BME280;47345;52.334;10.392;2023-12-14T10:45:54;100868.80;;;4.17;95.66
61478;BME280;47345;52.334;10.392;2023-12-14T10:48:22;100873.22;;;4.16;95.43
61478;BME280;47345;52.334;10.392;2023-12-14T10:50:50;100875.00;;;4.14;94.97
61478;BME280;47345;52.334;10.392;2023-12-14T10:53:19;100876.05;;;4.11;95.05
61478;BME280;47345;52.334;10.392;2023-12-14T10:55:46;100883.95;;;4.09;95.00
61478;BME280;47345;52.334;10.392;2023-12-14T10:58:15;100886.71;;;4.09;95.22
61478;BME280;47345;52.334;10.392;2023-12-14T11:00:43;100890.86;;;4.11;95.55
61478;BME280;47345;52.334;10.392;2023-12-14T11:03:14;100894.96;;;4.13;95.42
61478;BME280;47345;52.334;10.392;2023-12-14T11:05:42;100897.68;;;4.15;95.24
61478;BME280;47345;52.334;10.392;2023-12-14T11:08:10;100897.83;;;4.15;95.29
61478;BME280;47345;52.334;10.392;2023-12-14T11:10:40;100900.27;;;4.14;95.33
61478;BME280;47345;52.334;10.392;2023-12-14T11:13:09;100906.69;;;4.15;95.52
61478;BME280;47345;52.334;10.392;2023-12-14T11:15:41;100910.36;;;4.12;94.94
61478;BME280;47345;52.334;10.392;2023-12-14T11:18:36;100918.24;;;4.11;95.11
61478;BME280;47345;52.334;10.392;2023-12-14T11:21:04;100922.64;;;4.11;95.09
61478;BME280;47345;52.334;10.392;2023-12-14T11:23:36;100924.33;;;4.10;95.32
61478;BME280;47345;52.334;10.392;2023-12-14T11:26:08;100922.17;;;4.12;95.49
61478;BME280;47345;52.334;10.392;2023-12-14T11:28:38;100923.80;;;4.13;95.55
61478;BME280;47345;52.334;10.392;2023-12-14T11:31:07;100925.23;;;4.15;95.40
61478;BME280;47345;52.334;10.392;2023-12-14T11:33:37;100927.11;;;4.18;95.50
61478;BME280;47345;52.334;10.392;2023-12-14T11:36:12;100929.77;;;4.20;95.59
61478;BME280;47345;52.334;10.392;2023-12-14T11:38:40;100933.41;;;4.22;95.31
61478;BME280;47345;52.334;10.392;2023-12-14T11:41:07;100936.42;;;4.22;95.23
61478;BME280;47345;52.334;10.392;2023-12-14T11:43:40;100940.74;;;4.23;95.32
61478;BME280;47345;52.334;10.392;2023-12-14T11:46:08;100942.95;;;4.24;95.22
61478;BME280;47345;52.334;10.392;2023-12-14T11:48:37;100946.67;;;4.23;95.22
61478;BME280;47345;52.334;10.392;2023-12-14T11:51:05;100951.55;;;4.23;95.27
61478;BME280;47345;52.334;10.392;2023-12-14T11:53:33;100952.96;;;4.23;95.31
61478;BME280;47345;52.334;10.392;2023-12-14T11:56:07;100955.17;;;4.22;95.29
61478;BME280;47345;52.334;10.392;2023-12-14T11:58:34;100956.17;;;4.23;95.22
61478;BME280;47345;52.334;10.392;2023-12-14T12:01:13;100955.88;;;4.21;95.12
61478;BME280;47345;52.334;10.392;2023-12-14T12:03:41;100958.64;;;4.19;95.38
61478;BME280;47345;52.334;10.392;2023-12-14T12:06:08;100960.15;;;4.18;95.59
61478;BME280;47345;52.334;10.392;2023-12-14T12:08:42;100961.51;;;4.17;95.86
61478;BME280;47345;52.334;10.392;2023-12-14T12:11:10;100962.38;;;4.18;95.85
61478;BME280;47345;52.334;10.392;2023-12-14T12:13:37;100962.17;;;4.16;95.84
61478;BME280;47345;52.334;10.392;2023-12-14T12:16:06;100957.61;;;4.14;95.95
61478;BME280;47345;52.334;10.392;2023-12-14T12:18:33;100964.49;;;4.14;96.15
61478;BME280;47345;52.334;10.392;2023-12-14T12:21:05;100965.31;;;4.15;96.37
61478;BME280;47345;52.334;10.392;2023-12-14T12:23:33;100966.02;;;4.16;96.24
61478;BME280;47345;52.334;10.392;2023-12-14T12:26:01;100971.84;;;4.17;96.48
61478;BME280;47345;52.334;10.392;2023-12-14T12:28:30;100967.16;;;4.17;96.58
61478;BME280;47345;52.334;10.392;2023-12-14T12:30:58;100976.58;;;4.20;96.52
61478;BME280;47345;52.334;10.392;2023-12-14T12:33:27;100978.65;;;4.19;96.58
61478;BME280;47345;52.334;10.392;2023-12-14T12:35:55;100975.59;;;4.19;96.73
61478;BME280;47345;52.334;10.392;2023-12-14T12:38:24;100983.16;;;4.21;96.79
61478;BME280;47345;52.334;10.392;2023-12-14T12:40:52;100986.98;;;4.19;96.39
61478;BME280;47345;52.334;10.392;2023-12-14T12:43:21;100990.44;;;4.17;96.61
61478;BME280;47345;52.334;10.392;2023-12-14T12:45:48;100990.33;;;4.16;96.88
61478;BME280;47345;52.334;10.392;2023-12-14T12:48:17;100992.02;;;4.17;96.94
61478;BME280;47345;52.334;10.392;2023-12-14T12:50:45;100990.67;;;4.17;97.00
61478;BME280;47345;52.334;10.392;2023-12-14T12:53:13;100994.44;;;4.18;97.22
61478;BME280;47345;52.334;10.392;2023-12-14T12:55:41;100994.64;;;4.20;97.17